sensor_id;sensor_type;location;lat;lon;timestamp;P1;durP1;ratioP1;P2;durP2;ratioP2
75209;SDS011;63796;53.136;14.882;2023-04-15T17:47:08;18.00;;;12.80;;
75209;SDS011;63796;53.136;14.882;2023-04-15T17:49:36;18.60;;;12.00;;
75209;SDS011;63796;53.136;14.882;2023-04-15T17:52:03;22.20;;;13.90;;
75209;SDS011;63796;53.136;14.882;2023-04-15T17:54:31;22.30;;;14.20;;
75209;SDS011;63796;53.136;14.882;2023-04-15T17:56:58;27.30;;;15.70;;
75209;SDS011;63796;53.136;14.882;2023-04-15T17:59:27;42.70;;;24.40;;
75209;SDS011;63796;53.136;14.882;2023-04-15T18:01:57;24.40;;;15.70;;
75209;SDS011;63796;53.136;14.882;2023-04-15T18:04:25;23.10;;;14.80;;
75209;SDS011;63796;53.136;14.882;2023-04-15T18:06:53;26.50;;;15.60;;
75209;SDS011;63796;53.136;14.882;2023-04-15T18:09:20;31.80;;;20.50;;
75209;SDS011;63796;53.136;14.882;2023-04-15T18:11:47;59.50;;;30.80;;
75209;SDS011;63796;53.136;14.882;2023-04-15T18:14:15;51.00;;;28.30;;
75209;SDS011;63796;53.136;14.882;2023-04-15T18:16:59;35.40;;;19.60;;
75209;SDS011;63796;53.136;14.882;2023-04-15T18:19:27;33.90;;;20.50;;
75209;SDS011;63796;53.136;14.882;2023-04-15T18:21:54;41.00;;;23.40;;
75209;SDS011;63796;53.136;14.882;2023-04-15T18:24:21;38.10;;;23.20;;
75209;SDS011;63796;53.136;14.882;2023-04-15T18:26:49;32.90;;;18.60;;
75209;SDS011;63796;53.136;14.882;2023-04-15T18:29:16;33.00;;;19.80;;
75209;SDS011;63796;53.136;14.882;2023-04-15T18:31:44;31.20;;;17.60;;
75209;SDS011;63796;53.136;14.882;2023-04-15T18:34:12;30.70;;;17.50;;
75209;SDS011;63796;53.136;14.882;2023-04-15T18:36:39;37.30;;;20.30;;
75209;SDS011;63796;53.136;14.882;2023-04-15T18:39:07;66.10;;;34.00;;
75209;SDS011;63796;53.136;14.882;2023-04-15T18:41:35;69.70;;;34.90;;
75209;SDS011;63796;53.136;14.882;2023-04-15T18:44:02;82.00;;;38.60;;
75209;SDS011;63796;53.136;14.882;2023-04-15T18:46:29;41.20;;;22.40;;
75209;SDS011;63796;53.136;14.882;2023-04-15T18:48:57;46.10;;;24.30;;
75209;SDS011;63796;53.136;14.882;2023-04-15T18:51:24;36.10;;;20.10;;
75209;SDS011;63796;53.136;14.882;2023-04-15T18:53:52;61.90;;;30.00;;
75209;SDS011;63796;53.136;14.882;2023-04-15T18:56:19;66.50;;;32.50;;
75209;SDS011;63796;53.136;14.882;2023-04-15T18:58:47;63.10;;;33.00;;
75209;SDS011;63796;53.136;14.882;2023-04-15T19:01:34;34.70;;;21.30;;
75209;SDS011;63796;53.136;14.882;2023-04-15T19:04:02;41.40;;;21.20;;
75209;SDS011;63796;53.136;14.882;2023-04-15T19:06:29;61.20;;;31.80;;
75209;SDS011;63796;53.136;14.882;2023-04-15T19:08:57;44.90;;;28.30;;
75209;SDS011;63796;53.136;14.882;2023-04-15T19:11:25;43.20;;;24.90;;
75209;SDS011;63796;53.136;14.882;2023-04-15T19:13:52;39.20;;;22.40;;
75209;SDS011;63796;53.136;14.882;2023-04-15T19:16:20;76.10;;;42.40;;
75209;SDS011;63796;53.136;14.882;2023-04-15T19:18:47;55.20;;;28.40;;
75209;SDS011;63796;53.136;14.882;2023-04-15T19:21:15;62.90;;;30.50;;
75209;SDS011;63796;53.136;14.882;2023-04-15T19:23:42;58.70;;;30.20;;
75209;SDS011;63796;53.136;14.882;2023-04-15T19:26:10;49.00;;;25.50;;
75209;SDS011;63796;53.136;14.882;2023-04-15T19:28:37;50.80;;;26.50;;
75209;SDS011;63796;53.136;14.882;2023-04-15T19:31:05;31.80;;;19.20;;
75209;SDS011;63796;53.136;14.882;2023-04-15T19:33:33;34.70;;;19.20;;
75209;SDS011;63796;53.136;14.882;2023-04-15T19:36:02;42.30;;;22.30;;
75209;SDS011;63796;53.136;14.882;2023-04-15T19:38:30;59.10;;;29.40;;
75209;SDS011;63796;53.136;14.882;2023-04-15T19:40:58;32.30;;;17.70;;
75209;SDS011;63796;53.136;14.882;2023-04-15T19:43:26;46.50;;;24.40;;
75209;SDS011;63796;53.136;14.882;2023-04-15T19:45:53;47.70;;;26.70;;
75209;SDS011;63796;53.136;14.882;2023-04-15T19:48:21;35.40;;;21.00;;
75209;SDS011;63796;53.136;14.882;2023-04-15T19:50:50;37.70;;;19.50;;
75209;SDS011;63796;53.136;14.882;2023-04-15T19:53:18;42.70;;;23.20;;
75209;SDS011;63796;53.136;14.882;2023-04-15T19:55:45;37.60;;;21.80;;
75209;SDS011;63796;53.136;14.882;2023-04-15T19:58:14;29.40;;;15.40;;
75209;SDS011;63796;53.136;14.882;2023-04-15T20:00:41;56.30;;;22.70;;
75209;SDS011;63796;53.136;14.882;2023-04-15T20:03:09;26.80;;;13.80;;
75209;SDS011;63796;53.136;14.882;2023-04-15T20:05:37;27.40;;;14.70;;
75209;SDS011;63796;53.136;14.882;2023-04-15T20:08:04;33.70;;;15.40;;
75209;SDS011;63796;53.136;14.882;2023-04-15T20:10:31;31.90;;;16.10;;
75209;SDS011;63796;53.136;14.882;2023-04-15T20:12:59;28.70;;;15.20;;
75209;SDS011;63796;53.136;14.882;2023-04-15T20:15:27;39.10;;;17.70;;
75209;SDS011;63796;53.136;14.882;2023-04-15T20:17:54;36.70;;;18.60;;
75209;SDS011;63796;53.136;14.882;2023-04-15T20:20:21;29.20;;;15.40;;
75209;SDS011;63796;53.136;14.882;2023-04-15T20:22:49;38.40;;;16.80;;
75209;SDS011;63796;53.136;14.882;2023-04-15T20:25:16;27.70;;;15.30;;
75209;SDS011;63796;53.136;14.882;2023-04-15T20:27:44;34.00;;;18.90;;
75209;SDS011;63796;53.136;14.882;2023-04-15T20:30:11;28.80;;;15.00;;
75209;SDS011;63796;53.136;14.882;2023-04-15T20:32:38;35.10;;;16.10;;
75209;SDS011;63796;53.136;14.882;2023-04-15T20:35:06;24.70;;;13.70;;
75209;SDS011;63796;53.136;14.882;2023-04-15T20:37:35;28.30;;;14.40;;
75209;SDS011;63796;53.136;14.882;2023-04-15T20:40:03;30.50;;;14.70;;
75209;SDS011;63796;53.136;14.882;2023-04-15T20:42:32;24.00;;;13.40;;
75209;SDS011;63796;53.136;14.882;2023-04-15T20:45:00;34.00;;;16.90;;
75209;SDS011;63796;53.136;14.882;2023-04-15T20:47:28;39.80;;;17.00;;
75209;SDS011;63796;53.136;14.882;2023-04-15T20:49:56;43.60;;;18.50;;
75209;SDS011;63796;53.136;14.882;2023-04-15T20:52:23;43.00;;;16.70;;
75209;SDS011;63796;53.136;14.882;2023-04-15T20:54:50;53.50;;;22.30;;
75209;SDS011;63796;53.136;14.882;2023-04-15T20:57:18;39.30;;;17.40;;
75209;SDS011;63796;53.136;14.882;2023-04-15T20:59:46;38.20;;;16.80;;
75209;SDS011;63796;53.136;14.882;2023-04-15T21:02:13;29.40;;;13.70;;
75209;SDS011;63796;53.136;14.882;2023-04-15T21:04:41;35.10;;;15.80;;
75209;SDS011;63796;53.136;14.882;2023-04-15T21:07:08;61.80;;;20.80;;
75209;SDS011;63796;53.136;14.882;2023-04-15T21:09:36;25.40;;;12.60;;
75209;SDS011;63796;53.136;14.882;2023-04-15T21:12:07;51.70;;;19.50;;
75209;SDS011;63796;53.136;14.882;2023-04-15T21:14:35;58.90;;;22.80;;
75209;SDS011;63796;53.136;14.882;2023-04-15T21:17:03;36.20;;;16.40;;
75209;SDS011;63796;53.136;14.882;2023-04-15T21:19:37;35.50;;;15.70;;
75209;SDS011;63796;53.136;14.882;2023-04-15T21:22:05;32.10;;;13.60;;
75209;SDS011;63796;53.136;14.882;2023-04-15T21:24:32;30.50;;;13.40;;
75209;SDS011;63796;53.136;14.882;2023-04-15T21:27:00;26.40;;;14.10;;
75209;SDS011;63796;53.136;14.882;2023-04-15T21:29:28;39.20;;;16.80;;
75209;SDS011;63796;53.136;14.882;2023-04-15T21:31:55;35.20;;;15.70;;
75209;SDS011;63796;53.136;14.882;2023-04-15T21:34:23;55.60;;;23.20;;
75209;SDS011;63796;53.136;14.882;2023-04-15T21:36:50;32.10;;;14.60;;
75209;SDS011;63796;53.136;14.882;2023-04-15T21:39:18;35.80;;;15.10;;
75209;SDS011;63796;53.136;14.882;2023-04-15T21:41:45;35.20;;;14.90;;
75209;SDS011;63796;53.136;14.882;2023-04-15T21:44:13;33.20;;;16.20;;
75209;SDS011;63796;53.136;14.882;2023-04-15T21:46:41;28.90;;;13.90;;
75209;SDS011;63796;53.136;14.882;2023-04-15T21:49:12;53.40;;;21.60;;
75209;SDS011;63796;53.136;14.882;2023-04-15T21:51:39;39.90;;;17.70;;
75209;SDS011;63796;53.136;14.882;2023-04-15T21:54:07;27.00;;;13.50;;
75209;SDS011;63796;53.136;14.882;2023-04-15T21:56:34;45.40;;;17.60;;
75209;SDS011;63796;53.136;14.882;2023-04-15T21:59:03;33.10;;;15.60;;
75209;SDS011;63796;53.136;14.882;2023-04-15T22:01:31;37.80;;;17.20;;
75209;SDS011;63796;53.136;14.882;2023-04-15T22:03:59;26.50;;;13.50;;
75209;SDS011;63796;53.136;14.882;2023-04-15T22:06:27;51.10;;;21.00;;
75209;SDS011;63796;53.136;14.882;2023-04-15T22:08:54;27.10;;;14.10;;
75209;SDS011;63796;53.136;14.882;2023-04-15T22:11:24;40.40;;;18.80;;
75209;SDS011;63796;53.136;14.882;2023-04-15T22:13:57;20.90;;;12.20;;
75209;SDS011;63796;53.136;14.882;2023-04-15T22:16:25;29.20;;;15.10;;
75209;SDS011;63796;53.136;14.882;2023-04-15T22:18:53;31.30;;;14.90;;
75209;SDS011;63796;53.136;14.882;2023-04-15T22:21:21;25.90;;;13.90;;
75209;SDS011;63796;53.136;14.882;2023-04-15T22:23:50;16.60;;;10.10;;
75209;SDS011;63796;53.136;14.882;2023-04-15T22:26:17;15.50;;;9.50;;
75209;SDS011;63796;53.136;14.882;2023-04-15T22:28:45;17.00;;;10.70;;
75209;SDS011;63796;53.136;14.882;2023-04-15T22:31:12;17.50;;;10.60;;
75209;SDS011;63796;53.136;14.882;2023-04-15T22:33:41;14.10;;;8.70;;
75209;SDS011;63796;53.136;14.882;2023-04-15T22:36:08;12.90;;;8.00;;
75209;SDS011;63796;53.136;14.882;2023-04-15T22:38:36;11.60;;;8.10;;
75209;SDS011;63796;53.136;14.882;2023-04-15T22:41:03;13.70;;;8.40;;
75209;SDS011;63796;53.136;14.882;2023-04-15T22:43:30;13.80;;;8.30;;
75209;SDS011;63796;53.136;14.882;2023-04-15T22:45:59;15.40;;;9.50;;
75209;SDS011;63796;53.136;14.882;2023-04-15T22:48:26;12.90;;;8.40;;
75209;SDS011;63796;53.136;14.882;2023-04-15T22:50:54;9.40;;;6.40;;
75209;SDS011;63796;53.136;14.882;2023-04-15T22:53:22;12.70;;;9.20;;
75209;SDS011;63796;53.136;14.882;2023-04-15T22:55:49;12.30;;;8.60;;
75209;SDS011;63796;53.136;14.882;2023-04-15T22:58:17;15.30;;;10.20;;
75209;SDS011;63796;53.136;14.882;2023-04-15T23:00:45;12.00;;;6.80;;
75209;SDS011;63796;53.136;14.882;2023-04-15T23:03:12;10.50;;;6.40;;
75209;SDS011;63796;53.136;14.882;2023-04-15T23:05:40;10.30;;;6.20;;
75209;SDS011;63796;53.136;14.882;2023-04-15T23:08:08;7.20;;;5.80;;
75209;SDS011;63796;53.136;14.882;2023-04-15T23:10:35;8.50;;;6.20;;
75209;SDS011;63796;53.136;14.882;2023-04-15T23:13:04;7.30;;;5.60;;
75209;SDS011;63796;53.136;14.882;2023-04-15T23:15:31;7.90;;;5.60;;
75209;SDS011;63796;53.136;14.882;2023-04-15T23:17:59;7.50;;;5.20;;
75209;SDS011;63796;53.136;14.882;2023-04-15T23:20:28;8.50;;;5.50;;
75209;SDS011;63796;53.136;14.882;2023-04-15T23:22:55;7.20;;;4.80;;
75209;SDS011;63796;53.136;14.882;2023-04-15T23:25:23;6.70;;;4.90;;
75209;SDS011;63796;53.136;14.882;2023-04-15T23:27:50;5.70;;;4.80;;
75209;SDS011;63796;53.136;14.882;2023-04-15T23:30:17;7.00;;;5.00;;
75209;SDS011;63796;53.136;14.882;2023-04-15T23:32:45;5.70;;;4.60;;
75209;SDS011;63796;53.136;14.882;2023-04-15T23:35:12;6.40;;;4.90;;
75209;SDS011;63796;53.136;14.882;2023-04-15T23:37:39;7.40;;;4.90;;
75209;SDS011;63796;53.136;14.882;2023-04-15T23:40:07;9.60;;;6.20;;
75209;SDS011;63796;53.136;14.882;2023-04-15T23:42:35;7.70;;;5.60;;
75209;SDS011;63796;53.136;14.882;2023-04-15T23:45:02;7.90;;;5.90;;
75209;SDS011;63796;53.136;14.882;2023-04-15T23:47:29;7.40;;;4.80;;
75209;SDS011;63796;53.136;14.882;2023-04-15T23:49:57;6.70;;;5.10;;
75209;SDS011;63796;53.136;14.882;2023-04-15T23:52:24;7.80;;;5.20;;
75209;SDS011;63796;53.136;14.882;2023-04-15T23:54:52;8.80;;;5.70;;
75209;SDS011;63796;53.136;14.882;2023-04-15T23:57:19;7.70;;;5.60;;
75209;SDS011;63796;53.136;14.882;2023-04-15T23:59:47;7.10;;;5.20;;
